createdAt,value
2018-08-30T00:01:11.715Z,97321.62
2018-08-30T00:03:40.532Z,97329.22
2018-08-30T00:06:09.103Z,97326.64
2018-08-30T00:08:37.656Z,97328.55
2018-08-30T00:11:06.271Z,97325.42
2018-08-30T00:13:34.963Z,97331.37
2018-08-30T00:16:03.511Z,97339.49
2018-08-30T00:18:32.797Z,97337.95
2018-08-30T00:21:01.944Z,97339.84
2018-08-30T00:23:31.001Z,97332.77
2018-08-30T00:26:00.279Z,97335.45
2018-08-30T00:28:29.482Z,97342.27
2018-08-30T00:30:58.413Z,97335.23
2018-08-30T00:33:27.185Z,97336.50
2018-08-30T00:35:55.885Z,97337.12
2018-08-30T00:38:24.476Z,97334.77
2018-08-30T00:40:53.367Z,97333.73
2018-08-30T00:43:21.928Z,97341.00
2018-08-30T00:45:50.628Z,97339.47
2018-08-30T00:48:19.291Z,97346.38
2018-08-30T00:50:47.859Z,97342.37
2018-08-30T00:53:16.405Z,97341.95
2018-08-30T00:55:45.223Z,97348.86
2018-08-30T00:58:13.781Z,97359.75
2018-08-30T01:00:42.371Z,97352.14
2018-08-30T01:03:10.965Z,97352.50
2018-08-30T01:05:39.707Z,97355.56
2018-08-30T01:08:08.248Z,97361.67
2018-08-30T01:10:36.858Z,97362.01
2018-08-30T01:13:05.454Z,97365.98
2018-08-30T01:15:34.040Z,97360.14
2018-08-30T01:18:02.861Z,97367.28
2018-08-30T01:20:31.419Z,97367.39
2018-08-30T01:23:00.012Z,97371.36
2018-08-30T01:25:28.903Z,97378.64
2018-08-30T01:27:57.436Z,97384.27
2018-08-30T01:30:26.037Z,97384.75
2018-08-30T01:32:54.627Z,97388.73
2018-08-30T01:35:23.192Z,97393.66
2018-08-30T01:37:51.775Z,97392.60
2018-08-30T01:40:20.521Z,97390.12
2018-08-30T01:42:49.070Z,97403.72
2018-08-30T01:45:17.627Z,97401.52
2018-08-30T01:47:46.435Z,97399.51
2018-08-30T01:50:15.107Z,97406.44
2018-08-30T01:52:43.668Z,97418.82
2018-08-30T01:55:12.618Z,97411.92
2018-08-30T01:57:41.160Z,97420.43
2018-08-30T02:00:09.759Z,97421.68
2018-08-30T02:02:38.343Z,97422.87
2018-08-30T02:05:07.009Z,97426.56
2018-08-30T02:07:35.578Z,97433.34
2018-08-30T02:10:04.676Z,97433.92
2018-08-30T02:12:33.233Z,97435.56
2018-08-30T02:15:01.812Z,97436.03
2018-08-30T02:17:30.523Z,97437.08
2018-08-30T02:19:59.063Z,97437.16
2018-08-30T02:22:27.632Z,97443.45
2018-08-30T02:24:56.275Z,97445.09
2018-08-30T02:27:24.824Z,97450.47
2018-08-30T02:29:53.423Z,97448.73
2018-08-30T02:32:22.076Z,97444.05
2018-08-30T02:34:50.632Z,97443.72
2018-08-30T02:37:19.194Z,97451.90
2018-08-30T02:39:47.899Z,97454.25
2018-08-30T02:42:16.474Z,97458.09
2018-08-30T02:44:45.019Z,97453.73
2018-08-30T02:47:13.929Z,97452.59
2018-08-30T02:49:42.504Z,97455.61
2018-08-30T02:52:11.068Z,97452.42
2018-08-30T02:54:39.996Z,97454.27
2018-08-30T02:57:08.676Z,97460.72
2018-08-30T02:59:37.250Z,97467.90
2018-08-30T03:02:06.091Z,97469.80
2018-08-30T03:04:34.668Z,97461.40
2018-08-30T03:07:03.230Z,97466.61
2018-08-30T03:09:32.063Z,97458.24
2018-08-30T03:12:00.639Z,97450.44
2018-08-30T03:14:29.222Z,97449.85
2018-08-30T03:16:58.132Z,97448.57
2018-08-30T03:19:26.699Z,97448.69
2018-08-30T03:21:55.255Z,97451.66
2018-08-30T03:24:23.827Z,97454.53
2018-08-30T03:26:52.383Z,97455.36
2018-08-30T03:29:20.928Z,97447.87
2018-08-30T03:31:49.503Z,97450.31
2018-08-30T03:34:18.048Z,97451.81
2018-08-30T03:36:46.605Z,97460.78
2018-08-30T03:39:15.259Z,97458.28
2018-08-30T03:41:43.828Z,97469.33
2018-08-30T03:44:12.443Z,97471.56
2018-08-30T03:46:41.100Z,97485.66
2018-08-30T03:49:09.648Z,97487.50
2018-08-30T03:51:38.196Z,97489.82
2018-08-30T03:54:06.912Z,97496.95
2018-08-30T03:56:35.471Z,97492.27
2018-08-30T03:59:04.024Z,97496.58
2018-08-30T04:01:32.697Z,97492.05
2018-08-30T04:04:01.239Z,97493.60
2018-08-30T04:06:29.787Z,97490.48
2018-08-30T04:08:58.367Z,97498.94
2018-08-30T04:11:27.115Z,97497.00
2018-08-30T04:13:55.667Z,97494.25
2018-08-30T04:16:24.623Z,97494.66
2018-08-30T04:18:59.155Z,97497.59
2018-08-30T04:21:27.771Z,97509.44
2018-08-30T04:23:56.567Z,97501.61
2018-08-30T04:26:25.202Z,97504.30
2018-08-30T04:28:53.767Z,97502.06
2018-08-30T04:31:22.303Z,97503.05
2018-08-30T04:33:50.948Z,97500.75
2018-08-30T04:36:19.587Z,97508.46
2018-08-30T04:38:48.167Z,97504.24
2018-08-30T04:41:16.707Z,97502.52
2018-08-30T04:43:45.275Z,97502.28
2018-08-30T04:46:13.820Z,97512.73
2018-08-30T04:48:42.563Z,97508.67
2018-08-30T04:51:11.163Z,97517.82
2018-08-30T04:53:39.739Z,97519.44
2018-08-30T04:56:08.293Z,97512.56
2018-08-30T04:58:36.883Z,97511.43
2018-08-30T05:01:05.561Z,97519.02
2018-08-30T05:03:34.118Z,97513.88
2018-08-30T05:06:02.867Z,97523.24
2018-08-30T05:08:31.423Z,97526.18
2018-08-30T05:11:00.036Z,97526.64
2018-08-30T05:13:28.991Z,97527.23
2018-08-30T05:15:57.551Z,97530.09
2018-08-30T05:18:26.115Z,97530.67
2018-08-30T05:20:55.051Z,97538.59
2018-08-30T05:23:23.589Z,97544.23
2018-08-30T05:25:52.132Z,97548.08
2018-08-30T05:31:26.355Z,97556.79
2018-08-30T05:33:55.047Z,97559.73
2018-08-30T05:36:23.599Z,97553.11
2018-08-30T05:38:52.214Z,97559.36
2018-08-30T05:41:20.935Z,97562.64
2018-08-30T05:43:49.494Z,97555.97
2018-08-30T05:46:18.051Z,97555.97
2018-08-30T05:48:46.970Z,97550.58
2018-08-30T05:51:15.516Z,97558.54
2018-08-30T05:53:44.064Z,97559.16
2018-08-30T05:56:12.804Z,97563.75
2018-08-30T05:58:41.371Z,97563.63
2018-08-30T06:01:09.992Z,97561.64
2018-08-30T06:03:38.572Z,97560.61
2018-08-30T06:06:07.196Z,97563.92
2018-08-30T06:08:35.743Z,97579.18
2018-08-30T06:11:04.737Z,97569.44
2018-08-30T06:13:33.287Z,97571.59
2018-08-30T06:16:01.863Z,97575.92
2018-08-30T06:18:30.535Z,97572.38
2018-08-30T06:20:59.091Z,97582.03
2018-08-30T06:23:27.664Z,97580.20
2018-08-30T06:25:56.455Z,97592.14
2018-08-30T06:28:25.024Z,97586.44
2018-08-30T06:30:53.588Z,97587.21
2018-08-30T06:33:22.183Z,97586.75
2018-08-30T06:35:50.747Z,97596.45
2018-08-30T06:38:19.347Z,97599.39
2018-08-30T06:40:48.247Z,97603.81
2018-08-30T06:43:16.807Z,97602.94
2018-08-30T06:45:45.355Z,97599.33
2018-08-30T06:48:14.200Z,97608.20
2018-08-30T06:50:42.752Z,97616.47
2018-08-30T06:53:11.327Z,97619.56
2018-08-30T06:55:40.035Z,97617.09
2018-08-30T06:58:08.588Z,97618.33
2018-08-30T07:00:37.172Z,97620.05
2018-08-30T07:03:06.375Z,97617.66
2018-08-30T07:05:34.955Z,97618.84
2018-08-30T07:08:03.545Z,97625.14
2018-08-30T07:10:32.149Z,97632.36
2018-08-30T07:13:00.715Z,97637.59
2018-08-30T07:15:29.365Z,97629.89
2018-08-30T07:17:57.988Z,97635.60
2018-08-30T07:20:26.548Z,97636.45
2018-08-30T07:22:55.110Z,97635.06
2018-08-30T07:25:23.779Z,97637.27
2018-08-30T07:27:52.360Z,97637.67
2018-08-30T07:30:20.915Z,97638.07
2018-08-30T07:32:49.579Z,97644.65
2018-08-30T07:35:18.128Z,97645.61
2018-08-30T07:37:46.675Z,97651.63
2018-08-30T07:40:15.395Z,97650.77
2018-08-30T07:42:43.948Z,97652.41
2018-08-30T07:45:12.482Z,97658.08
2018-08-30T07:47:41.062Z,97657.58
2018-08-30T07:50:09.631Z,97662.25
2018-08-30T07:52:38.168Z,97671.08
2018-08-30T07:55:07.027Z,97675.56
2018-08-30T07:57:35.686Z,97679.79
2018-08-30T08:00:04.514Z,97681.38
2018-08-30T08:02:33.131Z,97680.89
2018-08-30T08:05:01.676Z,97691.95
2018-08-30T08:07:30.288Z,97694.82
2018-08-30T08:09:59.654Z,97696.16
2018-08-30T08:12:28.213Z,97690.98
2018-08-30T08:14:56.759Z,97696.62
2018-08-30T08:17:25.360Z,97696.62
2018-08-30T08:19:54.011Z,97699.69
2018-08-30T08:22:22.623Z,97698.95
2018-08-30T08:24:51.351Z,97703.17
2018-08-30T08:27:19.873Z,97707.86
2018-08-30T08:29:48.419Z,97704.95
2018-08-30T08:32:17.124Z,97711.55
2018-08-30T08:34:45.663Z,97709.89
2018-08-30T08:37:14.323Z,97712.81
2018-08-30T08:39:42.992Z,97715.42
2018-08-30T08:42:11.551Z,97714.14
2018-08-30T08:44:40.111Z,97711.04
2018-08-30T08:47:09.039Z,97713.03
2018-08-30T08:49:38.320Z,97712.75
2018-08-30T08:52:06.919Z,97711.12
2018-08-30T08:54:35.623Z,97712.22
2018-08-30T08:57:04.197Z,97714.91
2018-08-30T08:59:32.739Z,97716.89
2018-08-30T09:02:01.339Z,97712.52
2018-08-30T09:04:29.891Z,97711.85
2018-08-30T09:06:58.481Z,97718.17
2018-08-30T09:09:27.071Z,97715.25
2018-08-30T09:11:55.616Z,97709.72
2018-08-30T09:14:24.182Z,97707.46
2018-08-30T09:16:53.035Z,97707.37
2018-08-30T09:19:21.591Z,97702.92
2018-08-30T09:21:50.152Z,97706.70
2018-08-30T09:24:19.379Z,97704.41
2018-08-30T09:26:47.997Z,97709.41
2018-08-30T09:29:16.516Z,97705.02
2018-08-30T09:31:45.112Z,97708.52
2018-08-30T09:34:13.693Z,97709.23
2018-08-30T09:36:42.312Z,97710.12
2018-08-30T09:39:10.996Z,97707.61
2018-08-30T09:41:39.579Z,97700.22
2018-08-30T09:44:08.173Z,97694.80
2018-08-30T09:46:37.184Z,97694.17
2018-08-30T09:49:06.223Z,97691.11
2018-08-30T09:51:34.827Z,97690.31
2018-08-30T09:54:03.500Z,97687.91
2018-08-30T09:56:32.060Z,97685.34
2018-08-30T09:59:00.608Z,97692.66
2018-08-30T10:01:34.607Z,97690.75
2018-08-30T10:04:03.176Z,97689.93
2018-08-30T10:06:31.761Z,97692.38
2018-08-30T10:09:01.107Z,97684.56
2018-08-30T10:11:29.674Z,97686.47
2018-08-30T10:13:58.232Z,97689.19
2018-08-30T10:16:27.163Z,97688.17
2018-08-30T10:18:55.761Z,97688.28
2018-08-30T10:21:24.361Z,97687.68
2018-08-30T10:23:53.075Z,97694.54
2018-08-30T10:26:21.660Z,97686.81
2018-08-30T10:28:50.220Z,97690.50
2018-08-30T10:31:18.951Z,97696.42
2018-08-30T10:33:47.479Z,97695.91
2018-08-30T10:36:16.032Z,97688.83
2018-08-30T10:38:44.716Z,97687.38
2018-08-30T10:41:13.275Z,97693.27
2018-08-30T10:43:41.827Z,97694.78
2018-08-30T10:46:10.491Z,97684.98
2018-08-30T10:48:39.078Z,97687.69
2018-08-30T10:51:07.675Z,97686.92
2018-08-30T10:53:36.622Z,97685.86
2018-08-30T10:56:05.242Z,97682.91
2018-08-30T10:58:33.876Z,97682.02
2018-08-30T11:01:02.555Z,97684.72
2018-08-30T11:03:31.231Z,97680.77
2018-08-30T11:05:59.804Z,97691.28
2018-08-30T11:08:28.760Z,97694.58
2018-08-30T11:10:57.296Z,97701.88
2018-08-30T11:13:25.924Z,97699.16
2018-08-30T11:15:54.531Z,97698.97
2018-08-30T11:18:23.114Z,97707.36
2018-08-30T11:20:51.683Z,97701.27
2018-08-30T11:23:20.685Z,97702.96
2018-08-30T11:25:49.235Z,97704.00
2018-08-30T11:28:17.780Z,97705.03
2018-08-30T11:30:46.451Z,97702.52
2018-08-30T11:33:15.017Z,97708.05
2018-08-30T11:35:43.580Z,97708.88
2018-08-30T11:38:12.224Z,97700.39
2018-08-30T11:40:40.811Z,97701.39
2018-08-30T11:43:09.409Z,97702.16
2018-08-30T11:45:38.198Z,97705.36
2018-08-30T11:48:06.828Z,97711.20
2018-08-30T11:50:35.379Z,97705.27
2018-08-30T11:53:04.045Z,97704.28
2018-08-30T11:55:32.611Z,97697.66
2018-08-30T11:58:01.164Z,97705.56
2018-08-30T12:00:29.975Z,97705.58
2018-08-30T12:02:59.407Z,97698.89
2018-08-30T12:05:27.972Z,97700.88
2018-08-30T12:07:57.793Z,97702.64
2018-08-30T12:10:26.729Z,97705.27
2018-08-30T12:12:55.259Z,97708.89
2018-08-30T12:15:23.906Z,97702.52
2018-08-30T12:17:52.496Z,97702.28
2018-08-30T12:20:21.075Z,97706.97
2018-08-30T12:22:49.781Z,97712.83
2018-08-30T12:25:18.333Z,97706.15
2018-08-30T12:27:46.896Z,97703.47
2018-08-30T12:30:15.735Z,97700.41
2018-08-30T12:32:44.370Z,97698.03
2018-08-30T12:35:12.979Z,97688.34
2018-08-30T12:37:41.573Z,97688.44
2018-08-30T12:40:10.240Z,97692.17
2018-08-30T12:42:39.026Z,97680.31
2018-08-30T12:45:08.011Z,97681.53
2018-08-30T12:47:36.839Z,97676.31
2018-08-30T12:50:06.036Z,97681.51
2018-08-30T12:52:34.727Z,97679.42
2018-08-30T12:55:03.344Z,97679.95
2018-08-30T12:57:31.829Z,97675.27
2018-08-30T13:00:00.485Z,97675.09
2018-08-30T13:02:29.086Z,97677.47
2018-08-30T13:04:57.734Z,97671.42
2018-08-30T13:07:26.346Z,97669.59
2018-08-30T13:09:55.472Z,97676.13
2018-08-30T13:12:24.123Z,97670.13
2018-08-30T13:14:52.753Z,97674.73
2018-08-30T13:17:21.240Z,97670.77
2018-08-30T13:19:50.054Z,97669.67
2018-08-30T13:22:18.617Z,97664.79
2018-08-30T13:24:47.163Z,97664.81
2018-08-30T13:27:15.850Z,97661.34
2018-08-30T13:29:44.595Z,97666.44
2018-08-30T13:32:13.348Z,97669.42
2018-08-30T13:34:41.903Z,97668.73
2018-08-30T13:37:10.531Z,97661.27
2018-08-30T13:39:39.276Z,97661.79
2018-08-30T13:42:07.895Z,97658.13
2018-08-30T13:44:36.549Z,97661.57
2018-08-30T13:47:05.351Z,97664.20
2018-08-30T13:49:33.587Z,97666.50
2018-08-30T13:52:02.518Z,97662.28
2018-08-30T13:54:31.092Z,97655.34
2018-08-30T13:56:59.680Z,97658.20
2018-08-30T13:59:28.737Z,97655.51
2018-08-30T14:01:57.082Z,97662.61
2018-08-30T14:04:25.658Z,97665.39
2018-08-30T14:06:54.299Z,97660.59
2018-08-30T14:09:22.906Z,97656.48
2018-08-30T14:11:51.605Z,97659.03
2018-08-30T14:14:20.308Z,97655.69
2018-08-30T14:16:48.702Z,97656.94
2018-08-30T14:19:17.819Z,97656.66
2018-08-30T14:21:46.634Z,97647.17
2018-08-30T14:24:15.222Z,97651.14
2018-08-30T14:26:43.776Z,97648.52
2018-08-30T14:29:12.452Z,97645.61
2018-08-30T14:31:41.003Z,97648.70
2018-08-30T14:34:09.672Z,97649.28
2018-08-30T14:36:38.372Z,97653.87
2018-08-30T14:39:08.623Z,97653.31
2018-08-30T14:41:37.218Z,97655.28
2018-08-30T14:44:05.912Z,97653.27
2018-08-30T14:46:34.886Z,97654.84
2018-08-30T14:49:03.944Z,97656.22
2018-08-30T14:51:32.584Z,97659.70
2018-08-30T14:54:01.351Z,97663.79
2018-08-30T14:56:29.826Z,97667.05
2018-08-30T14:58:58.412Z,97668.25
2018-08-30T15:01:26.974Z,97668.04
2018-08-30T15:03:55.531Z,97672.84
2018-08-30T15:06:24.126Z,97667.37
2018-08-30T15:08:52.679Z,97666.22
2018-08-30T15:11:21.279Z,97664.92
2018-08-30T15:13:49.823Z,97669.23
2018-08-30T15:16:18.433Z,97671.60
2018-08-30T15:18:47.134Z,97670.78
2018-08-30T15:21:15.833Z,97679.11
2018-08-30T15:23:44.511Z,97690.48
2018-08-30T15:26:13.079Z,97694.77
2018-08-30T15:28:41.704Z,97686.97
2018-08-30T15:31:10.294Z,97694.34
2018-08-30T15:33:39.110Z,97687.41
2018-08-30T15:36:07.772Z,97694.20
2018-08-30T15:38:36.338Z,97694.66
2018-08-30T15:41:04.984Z,97700.06
2018-08-30T15:43:33.594Z,97699.34
2018-08-30T15:46:02.174Z,97703.24
2018-08-30T15:48:30.744Z,97704.67
2018-08-30T15:50:59.443Z,97711.73
2018-08-30T15:53:28.008Z,97706.92
2018-08-30T15:55:56.576Z,97706.70
2018-08-30T15:58:25.177Z,97706.48
2018-08-30T16:00:53.849Z,97706.12
2018-08-30T16:03:22.412Z,97707.89
2018-08-30T16:05:51.096Z,97709.66
2018-08-30T16:08:19.672Z,97712.62
2018-08-30T16:10:48.255Z,97712.88
2018-08-30T16:13:17.293Z,97710.52
2018-08-30T16:15:45.791Z,97706.64
2018-08-30T16:18:14.376Z,97709.70
2018-08-30T16:20:43.108Z,97710.90
2018-08-30T16:23:33.432Z,97708.79
2018-08-30T16:26:02.135Z,97717.84
2018-08-30T16:28:31.834Z,97718.54
2018-08-30T16:31:00.607Z,97709.87
2018-08-30T16:33:29.440Z,97708.45
2018-08-30T16:35:58.067Z,97705.84
2018-08-30T16:38:26.806Z,97709.36
2018-08-30T16:40:55.479Z,97707.11
2018-08-30T16:43:24.036Z,97710.18
2018-08-30T16:45:54.247Z,97712.27
2018-08-30T16:48:22.874Z,97714.62
2018-08-30T16:50:51.752Z,97715.91
2018-08-30T16:53:20.475Z,97713.92
2018-08-30T16:55:49.235Z,97711.80
2018-08-30T16:58:17.790Z,97709.22
2018-08-30T17:00:46.573Z,97710.18
2018-08-30T17:03:15.556Z,97707.34
2018-08-30T17:05:44.251Z,97714.52
2018-08-30T17:08:12.844Z,97707.70
2018-08-30T17:10:41.543Z,97707.10
2018-08-30T17:13:10.127Z,97709.21
2018-08-30T17:15:38.774Z,97705.66
2018-08-30T17:18:07.880Z,97705.79
2018-08-30T17:20:40.583Z,97713.87
2018-08-30T17:23:09.480Z,97710.34
2018-08-30T17:25:38.035Z,97706.79
2018-08-30T17:28:06.639Z,97710.55
2018-08-30T17:30:35.683Z,97705.21
2018-08-30T17:33:04.263Z,97711.03
2018-08-30T17:35:32.820Z,97711.48
2018-08-30T17:38:01.477Z,97705.40
2018-08-30T17:40:30.084Z,97703.84
2018-08-30T17:42:58.658Z,97710.17
2018-08-30T17:45:27.433Z,97705.13
2018-08-30T17:47:55.976Z,97701.39
2018-08-30T17:50:24.548Z,97714.14
2018-08-30T17:52:53.231Z,97712.62
2018-08-30T17:55:21.915Z,97714.40
2018-08-30T17:57:50.480Z,97718.78
2018-08-30T18:00:19.112Z,97716.85
2018-08-30T18:02:48.204Z,97712.75
2018-08-30T18:05:17.062Z,97720.72
2018-08-30T18:07:45.807Z,97719.65
2018-08-30T18:10:14.395Z,97717.53
2018-08-30T18:12:42.942Z,97724.52
2018-08-30T18:15:13.820Z,97726.15
2018-08-30T18:17:42.525Z,97727.44
2018-08-30T18:20:11.308Z,97725.23
2018-08-30T18:22:39.976Z,97727.44
2018-08-30T18:25:13.417Z,97727.20
2018-08-30T18:27:44.217Z,97735.88
2018-08-30T18:30:15.372Z,97736.91
2018-08-30T18:32:47.105Z,97734.55
2018-08-30T18:35:17.335Z,97735.26
2018-08-30T18:37:49.823Z,97735.72
2018-08-30T18:40:18.511Z,97732.87
2018-08-30T18:42:47.096Z,97736.69
2018-08-30T18:45:15.688Z,97743.61
2018-08-30T18:47:44.236Z,97743.83
2018-08-30T18:50:12.779Z,97747.34
2018-08-30T18:52:41.811Z,97746.94
2018-08-30T18:55:10.375Z,97751.87
2018-08-30T18:57:38.931Z,97747.39
2018-08-30T19:00:08.635Z,97750.19
2018-08-30T19:02:37.252Z,97753.22
2018-08-30T19:05:05.827Z,97748.39
2018-08-30T19:07:34.427Z,97753.54
2018-08-30T19:10:03.027Z,97761.34
2018-08-30T19:12:31.712Z,97756.78
2018-08-30T19:15:02.643Z,97753.38
2018-08-30T19:17:36.500Z,97758.48
2018-08-30T19:20:05.100Z,97755.57
2018-08-30T19:22:33.670Z,97759.89
2018-08-30T19:25:07.664Z,97764.16
2018-08-30T19:27:36.265Z,97762.08
2018-08-30T19:30:09.980Z,97766.42
2018-08-30T19:32:38.536Z,97764.52
2018-08-30T19:35:12.884Z,97770.06
2018-08-30T19:37:42.019Z,97767.89
2018-08-30T19:40:14.816Z,97769.72
2018-08-30T19:42:43.652Z,97773.86
2018-08-30T19:45:12.237Z,97768.29
2018-08-30T19:47:40.904Z,97764.63
2018-08-30T19:50:09.776Z,97776.05
2018-08-30T19:52:39.294Z,97776.08
2018-08-30T19:55:08.421Z,97777.37
2018-08-30T19:57:37.144Z,97782.52
2018-08-30T20:00:05.991Z,97780.83
2018-08-30T20:02:34.785Z,97777.13
2018-08-30T20:05:03.431Z,97780.90
2018-08-30T20:07:32.124Z,97771.79
2018-08-30T20:10:00.844Z,97777.37
2018-08-30T20:12:29.594Z,97774.36
2018-08-30T20:14:58.356Z,97778.87
2018-08-30T20:17:26.955Z,97782.97
2018-08-30T20:19:55.885Z,97778.11
2018-08-30T20:22:24.515Z,97777.58
2018-08-30T20:24:53.112Z,97780.61
2018-08-30T20:27:21.707Z,97785.16
2018-08-30T20:29:50.256Z,97777.38
2018-08-30T20:32:18.924Z,97778.22
2018-08-30T20:34:47.477Z,97776.11
2018-08-30T20:37:16.034Z,97775.13
2018-08-30T20:39:44.863Z,97774.36
2018-08-30T20:42:13.909Z,97773.34
2018-08-30T20:44:42.455Z,97767.83
2018-08-30T20:47:11.044Z,97762.34
2018-08-30T20:49:39.608Z,97768.20
2018-08-30T20:52:08.683Z,97765.26
2018-08-30T20:54:37.506Z,97769.60
2018-08-30T20:57:06.224Z,97773.73
2018-08-30T20:59:34.867Z,97775.20
2018-08-30T21:02:03.716Z,97766.78
2018-08-30T21:04:32.225Z,97765.50
2018-08-30T21:07:00.801Z,97759.08
2018-08-30T21:09:29.668Z,97763.39
2018-08-30T21:11:58.228Z,97761.84
2018-08-30T21:14:26.823Z,97763.97
2018-08-30T21:16:55.744Z,97759.28
2018-08-30T21:19:24.312Z,97762.94
2018-08-30T21:21:53.068Z,97756.70
2018-08-30T21:24:39.619Z,97758.64
2018-08-30T21:27:08.699Z,97758.94
2018-08-30T21:29:37.298Z,97754.91
2018-08-30T21:32:06.072Z,97750.88
2018-08-30T21:34:35.881Z,97753.30
2018-08-30T21:37:04.471Z,97750.73
2018-08-30T21:39:33.166Z,97754.13
2018-08-30T21:42:01.732Z,97758.05
2018-08-30T21:44:30.323Z,97756.88
2018-08-30T21:46:58.879Z,97755.83
2018-08-30T21:49:27.504Z,97758.36
2018-08-30T21:51:56.159Z,97758.70
2018-08-30T21:54:24.731Z,97754.92
2018-08-30T21:56:53.484Z,97756.02
2018-08-30T21:59:22.164Z,97754.08
2018-08-30T22:01:50.719Z,97753.32
2018-08-30T22:04:19.527Z,97747.27
2018-08-30T22:06:48.206Z,97748.11
2018-08-30T22:09:16.760Z,97744.14
2018-08-30T22:11:45.495Z,97744.45
2018-08-30T22:14:14.171Z,97737.70
2018-08-30T22:16:42.719Z,97741.81
2018-08-30T22:19:11.262Z,97738.04
2018-08-30T22:21:39.959Z,97740.14
2018-08-30T22:24:08.519Z,97742.72
2018-08-30T22:26:37.307Z,97739.17
2018-08-30T22:29:06.103Z,97737.89
2018-08-30T22:31:34.672Z,97738.80
2018-08-30T22:34:03.254Z,97739.89
2018-08-30T22:36:31.928Z,97743.55
2018-08-30T22:39:00.507Z,97746.38
2018-08-30T22:41:29.087Z,97749.58
2018-08-30T22:43:57.672Z,97750.41
2018-08-30T22:46:26.242Z,97742.14
2018-08-30T22:48:54.796Z,97740.78
2018-08-30T22:51:23.495Z,97740.97
2018-08-30T22:53:52.582Z,97738.02
2018-08-30T22:56:21.762Z,97739.56
2018-08-30T22:58:51.259Z,97741.04
2018-08-30T23:01:20.397Z,97738.36
2018-08-30T23:03:48.992Z,97736.62
2018-08-30T23:06:17.693Z,97736.42
2018-08-30T23:08:46.244Z,97737.59
2018-08-30T23:11:14.800Z,97743.10
2018-08-30T23:13:43.591Z,97741.56
2018-08-30T23:16:12.231Z,97736.59
2018-08-30T23:18:40.807Z,97734.75
2018-08-30T23:21:09.427Z,97737.77
2018-08-30T23:23:37.971Z,97736.92
2018-08-30T23:26:06.592Z,97733.52
2018-08-30T23:28:35.263Z,97735.52
2018-08-30T23:31:03.824Z,97731.27
2018-08-30T23:33:32.540Z,97732.70
2018-08-30T23:36:01.136Z,97733.27
2018-08-30T23:38:29.691Z,97727.88
2018-08-30T23:40:58.251Z,97729.41
2018-08-30T23:43:27.199Z,97728.59
2018-08-30T23:45:55.776Z,97731.16
2018-08-30T23:48:24.327Z,97723.27
2018-08-30T23:50:53.339Z,97726.27
2018-08-30T23:53:21.891Z,97723.95
2018-08-30T23:55:50.467Z,97723.47
2018-08-30T23:59:28.315Z,97725.89
